Time;durP1;ratioP1;P1;durP2;ratioP2;P2;SDS_P1;SDS_P2;PMS_P1;PMS_P2;Temp;Humidity;BMP_temperature;BMP_pressure;BME280_temperature;BME280_humidity;BME280_pressure;Samples;Min_cycle;Max_cycle;Signal;HPM_P1;HPM_P2
2021/01/30 00:01:14;;;;;;;12.23;7.90;;;1.30;99.90;;;;;;4960185;29;20468;-53
2021/01/30 00:03:40;;;;;;;16.77;9.57;;;1.30;99.90;;;;;;4960149;29;20440;-53
2021/01/30 00:06:07;;;;;;;15.20;8.03;;;1.20;99.90;;;;;;4959811;29;20448;-53
2021/01/30 00:08:33;;;;;;;12.90;7.73;;;1.20;99.90;;;;;;4960193;29;20428;-49
2021/01/30 00:10:59;;;;;;;14.93;7.37;;;1.20;99.90;;;;;;4960349;29;20480;-49
2021/01/30 00:13:26;;;;;;;11.00;7.53;;;1.20;99.90;;;;;;4960477;29;20512;-53
2021/01/30 00:15:53;;;;;;;15.93;8.67;;;1.20;99.90;;;;;;4959944;29;20492;-49
2021/01/30 00:18:19;;;;;;;22.23;8.53;;;1.20;99.90;;;;;;4960127;29;20483;-54
2021/01/30 00:20:46;;;;;;;15.70;8.23;;;1.20;99.90;;;;;;4960406;29;20441;-52
2021/01/30 00:23:14;;;;;;;13.33;8.33;;;1.20;99.90;;;;;;4959988;29;20544;-53
2021/01/30 00:25:41;;;;;;;18.93;9.00;;;1.10;99.90;;;;;;4960729;28;20452;-55
2021/01/30 00:28:08;;;;;;;11.63;7.23;;;1.10;99.90;;;;;;4960351;29;20456;-54
2021/01/30 00:30:36;;;;;;;11.87;7.10;;;1.10;99.90;;;;;;4960249;29;20444;-53
2021/01/30 00:33:04;;;;;;;14.80;8.20;;;1.10;99.90;;;;;;4961066;28;20487;-54
2021/01/30 00:35:32;;;;;;;13.57;7.37;;;1.10;99.90;;;;;;4960909;29;20437;-51
2021/01/30 00:37:59;;;;;;;14.33;8.10;;;1.00;99.90;;;;;;4960903;29;20483;-54
2021/01/30 00:40:26;;;;;;;14.53;9.10;;;1.00;99.90;;;;;;4951063;29;20894;-56
2021/01/30 00:42:55;;;;;;;11.47;6.77;;;1.00;99.90;;;;;;4925010;29;20492;-56
2021/01/30 07:32:08;;;;;;;10.13;5.97;;;1.20;99.90;;;;;;5377822;23;20486;-48
2021/01/30 07:34:40;;;;;;;15.03;5.90;;;1.20;99.90;;;;;;4998295;28;20458;-51
2021/01/30 07:37:14;;;;;;;8.57;5.27;;;0.60;99.90;;;;;;4997983;28;20419;-47
2021/01/30 07:39:46;;;;;;;14.10;7.40;;;1.20;99.90;;;;;;4996777;28;20533;-51
2021/01/30 07:42:16;;;;;;;8.40;5.07;;;1.20;99.90;;;;;;4999545;28;20483;-50
2021/01/30 07:45:03;;;;;;;12.67;6.77;;;1.20;99.90;;;;;;4999100;28;20466;-48
2021/01/30 07:47:38;;;;;;;12.63;6.30;;;1.20;99.90;;;;;;4999168;28;20466;-46
2021/01/30 07:50:12;;;;;;;9.80;6.30;;;1.20;99.90;;;;;;4999698;28;20438;-45
2021/01/30 07:52:54;;;;;;;9.80;6.93;;;1.30;99.90;;;;;;4999373;28;20487;-50
2021/01/30 07:55:20;;;;;;;8.20;5.27;;;1.30;99.90;;;;;;4998744;28;20416;-47
2021/01/30 07:58:31;;;;;;;10.17;6.70;;;1.40;99.90;;;;;;4998660;28;20451;-46
2021/01/30 08:01:12;;;;;;;11.77;6.17;;;1.40;99.90;;;;;;5000031;28;20431;-46
2021/01/30 08:04:00;;;;;;;12.03;5.57;;;1.40;99.90;;;;;;4999523;28;20455;-52
2021/01/30 08:06:44;;;;;;;8.53;5.07;;;1.50;99.90;;;;;;4999823;28;20428;-49
2021/01/30 08:09:25;;;;;;;8.87;4.87;;;1.50;99.90;;;;;;4999460;28;20410;-48
2021/01/30 08:11:57;;;;;;;8.80;4.70;;;1.60;99.90;;;;;;4999110;28;20479;-49
2021/01/30 08:14:36;;;;;;;7.80;4.73;;;1.60;99.90;;;;;;5212436;23;20484;-49
2021/01/30 08:17:14;;;;;;;7.07;3.80;;;1.70;99.90;;;;;;4975030;29;20420;-47
2021/01/30 08:19:51;;;;;;;6.70;4.33;;;1.60;99.90;;;;;;4998188;28;20462;-52
2021/01/30 08:22:22;;;;;;;10.50;4.23;;;1.80;99.90;;;;;;4997921;28;20469;-52
2021/01/30 08:24:55;;;;;;;8.73;6.20;;;1.80;99.90;;;;;;4999379;28;20495;-50
2021/01/30 08:27:25;;;;;;;9.20;4.97;;;1.90;99.90;;;;;;4999008;28;20431;-48
2021/01/30 08:29:59;;;;;;;9.10;5.57;;;2.00;99.90;;;;;;4998407;28;20513;-51
2021/01/30 08:32:39;;;;;;;10.33;5.03;;;1.90;99.90;;;;;;4998273;28;20435;-49
2021/01/30 08:35:49;;;;;;;7.50;4.67;;;1.90;99.90;;;;;;4994262;28;20811;-50
2021/01/30 08:38:38;;;;;;;8.30;3.93;;;1.80;99.90;;;;;;4975351;29;20421;-50
2021/01/30 08:41:42;;;;;;;8.93;4.90;;;1.80;99.90;;;;;;4976458;29;20428;-46
2021/01/30 08:44:20;;;;;;;8.40;4.77;;;1.90;99.90;;;;;;4974371;29;20451;-54
2021/01/30 08:46:47;;;;;;;9.60;5.07;;;1.90;99.90;;;;;;4974240;29;20446;-52
2021/01/30 08:49:23;;;;;;;9.07;5.20;;;2.00;99.90;;;;;;4974183;28;20483;-52
2021/01/30 08:52:24;;;;;;;6.20;4.63;;;2.00;99.90;;;;;;4962872;29;20974;-46
2021/01/30 08:54:51;;;;;;;9.03;4.90;;;2.10;99.90;;;;;;4956325;29;20460;-51
2021/01/30 08:57:43;;;;;;;11.17;5.60;;;2.00;99.90;;;;;;4959653;29;20457;-47
2021/01/30 09:00:48;;;;;;;10.43;5.53;;;2.10;99.90;;;;;;4960045;29;20448;-50
2021/01/30 09:03:44;;;;;;;8.60;5.67;;;2.20;99.90;;;;;;4954764;29;20483;-48
2021/01/30 09:06:31;;;;;;;13.07;6.90;;;2.30;99.90;;;;;;4967582;29;20514;-53
2021/01/30 09:09:06;;;;;;;11.10;6.00;;;2.30;99.90;;;;;;4965453;29;20448;-50
2021/01/30 09:11:42;;;;;;;10.00;7.20;;;2.40;99.90;;;;;;4971102;29;20487;-47
2021/01/30 09:14:29;;;;;;;13.10;6.93;;;2.40;99.90;;;;;;4969443;28;20446;-46
2021/01/30 09:17:24;;;;;;;12.97;5.23;;;2.40;99.90;;;;;;4967553;29;20448;-55
2021/01/30 09:20:00;;;;;;;10.57;5.53;;;2.50;99.90;;;;;;4960235;29;20447;-58
2021/01/30 09:22:35;;;;;;;8.80;5.83;;;2.50;99.90;;;;;;4967809;29;20475;-51
2021/01/30 09:25:17;;;;;;;11.10;5.80;;;2.60;99.90;;;;;;4963985;29;20474;-48
2021/01/30 09:27:53;;;;;;;8.43;6.50;;;2.60;99.90;;;;;;4973773;28;20519;-60
2021/01/30 09:30:36;;;;;;;9.33;5.90;;;2.60;99.90;;;;;;5918558;23;20632;-49
2021/01/30 09:33:11;;;;;;;7.60;5.50;;;2.50;99.90;;;;;;4941781;29;20448;-48
2021/01/30 09:35:43;;;;;;;8.50;5.63;;;2.50;99.90;;;;;;4949190;29;20772;-48
2021/01/30 09:38:23;;;;;;;10.00;5.80;;;2.60;99.90;;;;;;4955413;29;20468;-51
2021/01/30 09:41:14;;;;;;;11.10;6.47;;;2.60;99.90;;;;;;4948474;29;20452;-51
2021/01/30 09:43:41;;;;;;;9.90;6.07;;;2.70;99.90;;;;;;4951813;29;20457;-52
2021/01/30 09:46:13;;;;;;;8.80;6.20;;;2.70;99.90;;;;;;4955415;29;20528;-50
2021/01/30 09:48:42;;;;;;;11.90;6.60;;;2.60;99.90;;;;;;4949732;29;20464;-55
2021/01/30 09:51:11;;;;;;;10.17;5.83;;;2.60;99.90;;;;;;4949117;29;20453;-54
2021/01/30 09:53:43;;;;;;;10.10;5.90;;;2.60;99.90;;;;;;4951833;29;20503;-54
2021/01/30 09:56:12;;;;;;;9.30;6.40;;;2.60;99.90;;;;;;4946814;29;20440;-47
2021/01/30 09:58:46;;;;;;;10.10;7.17;;;2.60;99.90;;;;;;4949720;29;20492;-51
2021/01/30 10:03:49;;;;;;;10.53;6.10;;;2.70;99.90;;;;;;4969529;23;20559;-52
2021/01/30 10:06:18;;;;;;;10.67;6.63;;;2.60;99.90;;;;;;4954329;29;20441;-56
2021/01/30 12:35:22;;;;;;;4.40;3.03;;;4.10;99.90;;;;;;5493480;23;20467;-51
2021/01/30 12:37:51;;;;;;;5.30;3.93;;;4.90;99.90;;;;;;4979178;29;20438;-46
2021/01/30 12:40:22;;;;;;;5.03;3.47;;;5.60;99.90;;;;;;4968768;29;20440;-47
2021/01/30 12:42:49;;;;;;;5.43;3.17;;;5.50;99.90;;;;;;4979058;29;20448;-46
2021/01/30 12:45:17;;;;;;;3.40;2.37;;;5.30;99.90;;;;;;4973557;29;20451;-46
2021/01/30 12:47:45;;;;;;;4.57;2.70;;;5.10;99.90;;;;;;4969835;29;20431;-45
2021/01/30 12:50:15;;;;;;;5.23;3.03;;;5.00;99.90;;;;;;4979309;28;20479;-48
2021/01/30 12:52:42;;;;;;;3.00;2.23;;;4.90;99.90;;;;;;4976501;28;20496;-46
2021/01/30 12:55:10;;;;;;;2.63;2.10;;;4.90;99.90;;;;;;4976279;28;20491;-49
2021/01/30 12:57:37;;;;;;;4.80;3.50;;;4.80;99.90;;;;;;4968722;29;20444;-53
2021/01/30 13:00:06;;;;;;;3.90;2.40;;;4.70;99.90;;;;;;4972370;29;20452;-48
2021/01/30 13:02:33;;;;;;;4.30;2.33;;;4.60;99.90;;;;;;4972807;29;20488;-50
2021/01/30 13:04:59;;;;;;;3.10;2.80;;;4.40;99.90;;;;;;4975686;28;20452;-48
2021/01/30 13:07:26;;;;;;;2.57;2.30;;;4.20;99.90;;;;;;4975034;29;20451;-49
2021/01/30 13:09:53;;;;;;;4.30;2.60;;;4.00;99.90;;;;;;4975170;29;20452;-55
2021/01/30 13:12:20;;;;;;;3.23;2.80;;;3.90;99.90;;;;;;4974702;29;20481;-49
2021/01/30 13:14:47;;;;;;;6.60;2.57;;;4.00;99.90;;;;;;4964280;29;20436;-51
2021/01/30 13:17:13;;;;;;;3.93;3.00;;;4.00;99.90;;;;;;4963910;29;20522;-48
2021/01/30 13:19:40;;;;;;;4.43;2.47;;;4.00;99.90;;;;;;4964525;29;20458;-49
2021/01/30 13:22:07;;;;;;;4.30;2.90;;;3.90;99.90;;;;;;4971784;29;20484;-49
2021/01/30 13:24:33;;;;;;;3.10;2.10;;;3.90;99.90;;;;;;4970283;29;20487;-53
2021/01/30 13:27:04;;;;;;;4.93;4.10;;;3.90;99.90;;;;;;4965491;29;20452;-50
2021/01/30 13:29:32;;;;;;;3.07;2.23;;;3.80;99.90;;;;;;4965788;29;20458;-50
2021/01/30 13:32:01;;;;;;;3.40;2.07;;;3.80;99.90;;;;;;4965961;29;20464;-50
2021/01/30 13:34:28;;;;;;;3.80;2.40;;;3.70;99.90;;;;;;4965032;29;20478;-49
2021/01/30 13:36:56;;;;;;;3.07;2.37;;;3.70;99.90;;;;;;4965370;29;20435;-53
2021/01/30 13:39:23;;;;;;;2.13;1.73;;;3.70;99.90;;;;;;4965364;29;20467;-51
2021/01/30 13:41:50;;;;;;;2.60;2.03;;;3.60;99.90;;;;;;4965372;29;20466;-48
2021/01/30 13:44:17;;;;;;;3.27;1.87;;;3.60;99.90;;;;;;4976104;29;20451;-52
2021/01/30 13:46:44;;;;;;;3.10;1.97;;;3.60;99.90;;;;;;4974995;29;20531;-48
2021/01/30 13:49:11;;;;;;;2.90;2.00;;;3.50;99.90;;;;;;4975312;29;20515;-49
2021/01/30 13:51:37;;;;;;;5.03;2.80;;;3.40;99.90;;;;;;4975022;29;20438;-53
2021/01/30 13:54:04;;;;;;;4.50;2.93;;;3.40;99.90;;;;;;4974838;29;20486;-54
2021/01/30 13:56:30;;;;;;;4.67;2.47;;;3.30;99.90;;;;;;4975807;29;20472;-48
2021/01/30 13:58:56;;;;;;;3.03;2.30;;;3.20;99.90;;;;;;4975661;29;20448;-49
2021/01/30 14:01:24;;;;;;;6.07;2.67;;;3.20;99.90;;;;;;4975948;29;20448;-47
2021/01/30 14:03:50;;;;;;;4.37;2.60;;;3.30;99.90;;;;;;4975356;29;20547;-47
2021/01/30 14:06:17;;;;;;;5.83;2.67;;;3.40;99.90;;;;;;4975773;29;20456;-47
2021/01/30 14:08:43;;;;;;;3.47;2.63;;;3.60;99.90;;;;;;4975189;29;20467;-46
2021/01/30 14:11:10;;;;;;;3.80;2.40;;;3.70;99.90;;;;;;4975060;29;20443;-50
2021/01/30 14:13:36;;;;;;;12.47;9.23;;;3.80;99.90;;;;;;4974899;29;20502;-50
2021/01/30 14:16:04;;;;;;;11.33;4.43;;;4.10;99.90;;;;;;4973766;28;20982;-49
2021/01/30 14:18:31;;;;;;;3.50;2.13;;;4.50;99.90;;;;;;4977588;29;20507;-54
2021/01/30 14:20:57;;;;;;;3.60;2.37;;;4.50;99.90;;;;;;4978022;29;20511;-52
2021/01/30 14:23:32;;;;;;;3.50;2.33;;;4.50;99.90;;;;;;4969848;28;20463;-49
2021/01/30 14:25:59;;;;;;;2.93;1.87;;;4.40;99.90;;;;;;4958858;29;20428;-50
2021/01/30 14:28:25;;;;;;;3.83;2.50;;;4.60;99.90;;;;;;4961056;29;20456;-50
2021/01/30 14:30:59;;;;;;;5.27;2.97;;;4.50;99.90;;;;;;4962160;29;20464;-54
2021/01/30 14:33:26;;;;;;;3.10;1.80;;;4.30;99.90;;;;;;4963372;29;20417;-49
2021/01/30 14:35:57;;;;;;;3.10;2.40;;;4.10;99.90;;;;;;4963249;29;20547;-51
2021/01/30 14:38:23;;;;;;;3.70;1.87;;;4.00;99.90;;;;;;4960827;29;20426;-53
2021/01/30 14:40:50;;;;;;;3.13;2.27;;;3.80;99.90;;;;;;4961388;29;20528;-45
2021/01/30 14:56:14;;;;;;;3.80;2.53;;;3.20;99.90;;;;;;5370265;23;20489;-55
2021/01/30 14:58:40;;;;;;;3.40;2.07;;;3.10;99.90;;;;;;4963079;28;20496;-54
2021/01/30 15:01:07;;;;;;;2.10;1.77;;;3.00;99.90;;;;;;4961423;29;20483;-55
2021/01/30 15:03:33;;;;;;;3.67;1.90;;;2.90;99.90;;;;;;4960695;29;20480;-50
2021/01/30 15:06:00;;;;;;;3.80;2.17;;;2.90;99.90;;;;;;4961096;29;20453;-51
2021/01/30 15:08:26;;;;;;;4.43;2.60;;;2.80;99.90;;;;;;4961096;29;20448;-54
2021/01/30 15:10:55;;;;;;;3.20;2.30;;;2.70;99.90;;;;;;4961507;29;20472;-53
2021/01/30 15:13:23;;;;;;;5.37;3.07;;;2.70;99.90;;;;;;4961604;29;20457;-51
2021/01/30 15:15:49;;;;;;;5.97;3.40;;;2.60;99.90;;;;;;4961825;29;20425;-54
2021/01/30 15:18:16;;;;;;;3.20;2.70;;;2.60;99.90;;;;;;4961607;29;20512;-48
2021/01/30 15:20:43;;;;;;;5.03;2.03;;;2.60;99.90;;;;;;4961162;29;20456;-49
2021/01/30 15:23:11;;;;;;;2.70;1.97;;;2.50;99.90;;;;;;4959749;29;20480;-53
2021/01/30 15:25:38;;;;;;;3.80;2.10;;;2.50;99.90;;;;;;4959640;29;20448;-51
2021/01/30 15:28:07;;;;;;;2.57;2.07;;;2.50;99.90;;;;;;4959799;29;20456;-51
2021/01/30 15:30:35;;;;;;;4.73;2.90;;;2.50;99.90;;;;;;4959942;29;20456;-54
2021/01/30 15:33:02;;;;;;;4.33;2.20;;;2.50;99.90;;;;;;4961437;29;20484;-53
2021/01/30 15:35:30;;;;;;;4.53;2.40;;;2.40;99.90;;;;;;4960163;29;20449;-52
2021/01/30 15:37:56;;;;;;;7.03;3.20;;;2.50;99.90;;;;;;4960328;29;20453;-50
2021/01/30 15:40:23;;;;;;;3.47;2.53;;;2.50;99.90;;;;;;4960278;29;20444;-55
2021/01/30 15:42:50;;;;;;;3.53;2.53;;;2.50;99.90;;;;;;4959763;29;20460;-49
2021/01/30 15:45:16;;;;;;;3.50;2.43;;;2.50;99.90;;;;;;4959840;29;20463;-47
2021/01/30 15:47:44;;;;;;;2.50;1.90;;;2.50;99.90;;;;;;4960333;29;20539;-52
2021/01/30 15:50:13;;;;;;;3.60;2.40;;;2.50;99.90;;;;;;4959220;29;20443;-52
2021/01/30 15:52:40;;;;;;;4.10;2.50;;;2.60;99.90;;;;;;4959322;29;20508;-47
2021/01/30 15:55:11;;;;;;;2.30;2.10;;;2.60;99.90;;;;;;4958997;29;20469;-53
2021/01/30 15:57:38;;;;;;;3.80;2.63;;;2.60;99.90;;;;;;4959265;29;20441;-47
2021/01/30 16:00:06;;;;;;;4.83;2.57;;;2.60;99.90;;;;;;4959015;29;20530;-53
2021/01/30 16:02:32;;;;;;;4.63;2.93;;;2.60;99.90;;;;;;4959479;29;20536;-50
2021/01/30 16:05:00;;;;;;;6.30;3.40;;;2.70;99.90;;;;;;4960371;29;20464;-52
2021/01/30 16:07:26;;;;;;;4.00;2.77;;;2.60;99.90;;;;;;4959685;29;20480;-48
2021/01/30 16:09:53;;;;;;;5.53;2.73;;;2.50;99.90;;;;;;4959785;29;20476;-51
2021/01/30 16:12:19;;;;;;;4.70;3.30;;;2.50;99.90;;;;;;4959597;29;20449;-53
2021/01/30 16:14:46;;;;;;;5.33;3.20;;;2.50;99.90;;;;;;4959430;29;20488;-47
2021/01/30 16:17:13;;;;;;;3.83;2.97;;;2.60;99.90;;;;;;4959573;29;20476;-53
2021/01/30 16:19:39;;;;;;;6.03;3.10;;;2.60;99.90;;;;;;4959242;29;20497;-52
2021/01/30 16:22:07;;;;;;;3.23;2.50;;;2.60;99.90;;;;;;4959373;29;20475;-49
2021/01/30 16:24:33;;;;;;;5.00;2.90;;;2.60;99.90;;;;;;4959648;29;20429;-49
2021/01/30 16:27:03;;;;;;;5.07;2.73;;;2.60;99.90;;;;;;4958918;29;20454;-48
2021/01/30 16:29:30;;;;;;;4.77;3.13;;;2.60;99.90;;;;;;4959891;29;20587;-48
2021/01/30 16:31:57;;;;;;;5.63;3.40;;;2.60;99.90;;;;;;4960102;29;20437;-50
2021/01/30 16:34:27;;;;;;;6.43;3.73;;;2.60;99.90;;;;;;4959452;29;20457;-52
2021/01/30 16:36:58;;;;;;;5.43;3.10;;;2.60;99.90;;;;;;4959418;29;20445;-53
2021/01/30 16:39:27;;;;;;;4.07;2.90;;;2.60;99.90;;;;;;4959447;29;20453;-46
2021/01/30 16:41:54;;;;;;;4.47;3.10;;;2.60;99.90;;;;;;4960232;29;20431;-48
2021/01/30 16:44:24;;;;;;;5.47;3.70;;;2.60;99.90;;;;;;4958499;29;20473;-48
2021/01/30 16:46:50;;;;;;;5.50;3.63;;;2.70;99.90;;;;;;4959216;29;20453;-46
2021/01/30 16:49:17;;;;;;;5.07;3.30;;;2.70;99.90;;;;;;4959007;29;20459;-48
2021/01/30 16:51:44;;;;;;;4.80;3.43;;;2.70;99.90;;;;;;4959340;29;20803;-47
2021/01/30 16:54:11;;;;;;;4.50;3.37;;;2.60;99.90;;;;;;4958194;29;20463;-51
2021/01/30 16:56:38;;;;;;;4.40;2.67;;;2.60;99.90;;;;;;4959088;29;20481;-46
2021/01/30 16:59:05;;;;;;;4.77;2.90;;;2.60;99.90;;;;;;4958998;29;20437;-48
2021/01/30 17:01:31;;;;;;;6.50;3.60;;;2.60;99.90;;;;;;4958406;29;20444;-47
2021/01/30 17:03:58;;;;;;;6.90;3.10;;;2.60;99.90;;;;;;4958098;29;20484;-48
2021/01/30 17:06:25;;;;;;;4.27;2.73;;;2.60;99.90;;;;;;4957891;29;20460;-50
2021/01/30 17:08:51;;;;;;;4.77;3.30;;;2.60;99.90;;;;;;4957366;29;20475;-50
2021/01/30 17:11:18;;;;;;;3.80;2.80;;;2.60;99.90;;;;;;4957227;29;20492;-50
2021/01/30 17:13:46;;;;;;;7.13;3.07;;;2.60;99.90;;;;;;4958799;29;21017;-50
2021/01/30 17:16:13;;;;;;;5.80;3.20;;;2.60;99.90;;;;;;4953574;29;20453;-49
2021/01/30 17:18:40;;;;;;;3.83;2.43;;;2.60;99.90;;;;;;4956455;29;20549;-51
2021/01/30 17:21:09;;;;;;;6.17;3.27;;;2.70;99.90;;;;;;4955637;29;20468;-52
2021/01/30 17:23:38;;;;;;;4.40;2.40;;;2.60;99.90;;;;;;4949783;29;20485;-55
2021/01/30 17:26:06;;;;;;;6.30;3.37;;;2.70;99.90;;;;;;4949336;29;20461;-53
2021/01/30 17:28:32;;;;;;;5.33;3.40;;;2.60;99.90;;;;;;4948483;29;20525;-51
2021/01/30 17:31:00;;;;;;;4.80;3.30;;;2.60;99.90;;;;;;4948729;29;20453;-51
2021/01/30 17:33:26;;;;;;;7.57;3.57;;;2.60;99.90;;;;;;4949235;29;20493;-53
2021/01/30 17:35:53;;;;;;;3.87;2.90;;;2.60;99.90;;;;;;4949464;29;20437;-49
2021/01/30 17:38:20;;;;;;;9.80;3.37;;;2.60;99.90;;;;;;4948582;29;20445;-52
2021/01/30 17:40:46;;;;;;;3.87;2.87;;;2.60;99.90;;;;;;4949114;29;20456;-51
2021/01/30 17:43:17;;;;;;;5.30;2.90;;;2.60;99.90;;;;;;4948689;29;20555;-56
2021/01/30 17:45:43;;;;;;;3.97;2.53;;;2.60;99.90;;;;;;4946815;29;20452;-54
2021/01/30 17:48:22;;;;;;;4.40;2.57;;;2.60;99.90;;;;;;4958168;29;20487;-55
2021/01/30 17:50:49;;;;;;;4.03;2.20;;;2.60;99.90;;;;;;4946626;29;20485;-49
2021/01/30 17:53:19;;;;;;;3.27;2.40;;;2.60;99.90;;;;;;4947976;29;20456;-50
2021/01/30 17:55:48;;;;;;;3.03;2.30;;;2.50;99.90;;;;;;4950007;29;20477;-55
2021/01/30 17:58:15;;;;;;;3.03;2.00;;;2.50;99.90;;;;;;4944400;29;20444;-55
2021/01/30 18:00:43;;;;;;;3.47;2.53;;;2.50;99.90;;;;;;4949381;29;20448;-57
2021/01/30 18:03:13;;;;;;;5.50;2.67;;;2.50;99.90;;;;;;4949098;29;20485;-54
2021/01/30 18:05:46;;;;;;;3.63;3.20;;;2.40;99.90;;;;;;4951971;29;20496;-53
2021/01/30 18:08:13;;;;;;;4.53;2.97;;;2.40;99.90;;;;;;4956946;29;20455;-57
2021/01/30 18:10:40;;;;;;;4.47;2.63;;;2.40;99.90;;;;;;4957730;29;20449;-55
2021/01/30 18:13:08;;;;;;;4.57;2.80;;;2.40;99.90;;;;;;4957549;29;20449;-55
2021/01/30 18:15:35;;;;;;;5.67;3.27;;;2.30;99.90;;;;;;4957113;29;20444;-51
2021/01/30 18:18:03;;;;;;;6.30;3.57;;;2.30;99.90;;;;;;4957704;29;20440;-54
2021/01/30 18:20:31;;;;;;;5.00;2.90;;;2.30;99.90;;;;;;4957724;29;20477;-50
2021/01/30 18:22:59;;;;;;;5.40;3.20;;;2.30;99.90;;;;;;4957366;29;20480;-54
2021/01/30 18:25:28;;;;;;;11.73;3.00;;;2.30;99.90;;;;;;4957446;29;20425;-50
2021/01/30 18:27:55;;;;;;;4.13;2.80;;;2.30;99.90;;;;;;4957863;29;20429;-57
2021/01/30 18:30:26;;;;;;;4.23;3.63;;;2.20;99.90;;;;;;4957807;29;20548;-55
2021/01/30 18:32:53;;;;;;;5.87;3.10;;;2.20;99.90;;;;;;4957408;29;20441;-55
2021/01/30 18:35:20;;;;;;;6.03;3.43;;;2.20;99.90;;;;;;4957501;29;20440;-56
2021/01/30 18:37:47;;;;;;;10.00;3.93;;;2.20;99.90;;;;;;4957503;29;20429;-59
2021/01/30 18:40:20;;;;;;;7.00;3.73;;;2.20;99.90;;;;;;4957516;29;20575;-59
2021/01/30 18:42:47;;;;;;;5.20;4.10;;;2.20;99.90;;;;;;4957400;29;20456;-52
2021/01/30 18:45:14;;;;;;;8.20;4.57;;;2.30;99.90;;;;;;4958355;28;20445;-52
2021/01/30 18:47:41;;;;;;;5.07;4.53;;;2.20;99.90;;;;;;4957291;29;20448;-56
2021/01/30 18:50:10;;;;;;;8.70;4.03;;;2.20;99.90;;;;;;4957742;29;20437;-55
2021/01/30 18:52:36;;;;;;;5.90;4.10;;;2.20;99.90;;;;;;4957433;29;20476;-57
2021/01/30 18:55:03;;;;;;;7.57;4.40;;;2.10;99.90;;;;;;4957218;29;20477;-52
2021/01/30 18:57:31;;;;;;;11.20;5.10;;;2.10;99.90;;;;;;4956658;29;20476;-54
2021/01/30 18:59:59;;;;;;;9.43;4.50;;;2.10;99.90;;;;;;4957388;29;20464;-57
2021/01/30 19:02:25;;;;;;;9.00;5.10;;;2.10;99.90;;;;;;4957441;29;20464;-53
2021/01/30 19:04:52;;;;;;;5.50;4.13;;;2.00;99.90;;;;;;4956035;29;20452;-55
2021/01/30 19:07:18;;;;;;;28.10;15.20;;;2.00;99.90;;;;;;4953456;29;20445;-56
2021/01/30 19:09:45;;;;;;;19.33;8.97;;;2.00;99.90;;;;;;4961083;29;20435;-55
2021/01/30 19:12:12;;;;;;;9.70;4.73;;;2.00;99.90;;;;;;4957575;29;20461;-55
2021/01/30 19:14:43;;;;;;;8.80;5.00;;;2.00;99.90;;;;;;4952982;29;20448;-55
2021/01/30 19:17:10;;;;;;;10.63;4.53;;;2.00;99.90;;;;;;4952780;29;20456;-52
2021/01/30 19:19:38;;;;;;;10.03;6.57;;;2.00;99.90;;;;;;4953279;29;20487;-55
2021/01/30 19:22:04;;;;;;;7.63;5.10;;;2.00;99.90;;;;;;4953681;29;20457;-56
2021/01/30 19:24:31;;;;;;;14.70;5.23;;;2.00;99.90;;;;;;4953228;29;20503;-55
2021/01/30 19:26:58;;;;;;;5.60;3.53;;;2.10;99.90;;;;;;4952328;29;20761;-51
2021/01/30 19:29:25;;;;;;;6.70;3.10;;;2.10;99.90;;;;;;4953214;29;20456;-53
2021/01/30 19:31:53;;;;;;;7.17;4.30;;;2.10;99.90;;;;;;4953722;29;20514;-52
2021/01/30 19:34:19;;;;;;;7.10;3.93;;;2.10;99.90;;;;;;4953458;29;20532;-53
2021/01/30 19:36:45;;;;;;;7.00;4.00;;;2.10;99.90;;;;;;4954544;29;20531;-54
2021/01/30 19:39:12;;;;;;;11.37;4.70;;;2.10;99.90;;;;;;4953502;29;20931;-52
2021/01/30 19:41:42;;;;;;;6.90;3.80;;;2.10;99.90;;;;;;4953542;29;20448;-54
2021/01/30 19:44:09;;;;;;;5.80;3.43;;;2.10;99.90;;;;;;4953079;29;20516;-55
2021/01/30 19:46:39;;;;;;;13.63;3.90;;;2.10;99.90;;;;;;4950241;29;20476;-55
2021/01/30 19:49:08;;;;;;;5.27;3.83;;;2.10;99.90;;;;;;4952590;29;20926;-55
2021/01/30 19:51:35;;;;;;;7.53;4.40;;;2.10;99.90;;;;;;4953259;29;20456;-55
2021/01/30 19:54:02;;;;;;;7.53;4.00;;;2.10;99.90;;;;;;4952980;29;20444;-53
2021/01/30 19:56:30;;;;;;;9.60;5.13;;;2.00;99.90;;;;;;4953218;29;20491;-54
2021/01/30 19:58:57;;;;;;;10.23;4.47;;;1.90;99.90;;;;;;4953038;29;20445;-53
2021/01/30 20:01:26;;;;;;;9.00;4.73;;;1.90;99.90;;;;;;4953115;29;20459;-51
2021/01/30 20:03:53;;;;;;;5.90;4.03;;;1.90;99.90;;;;;;4953160;29;20481;-51
2021/01/30 20:06:21;;;;;;;7.07;4.87;;;1.90;99.90;;;;;;4951736;29;20449;-52
2021/01/30 20:08:50;;;;;;;7.27;4.77;;;1.90;99.90;;;;;;4952256;29;20456;-52
2021/01/30 20:11:16;;;;;;;8.30;5.03;;;1.90;99.90;;;;;;4961389;28;20445;-55
2021/01/30 20:13:43;;;;;;;8.10;5.20;;;1.90;99.90;;;;;;4961197;29;20499;-50
2021/01/30 20:16:09;;;;;;;10.93;5.93;;;1.90;99.90;;;;;;4959511;29;20935;-52
2021/01/30 20:18:36;;;;;;;13.00;6.77;;;1.80;99.90;;;;;;4960085;29;20464;-54
2021/01/30 20:21:02;;;;;;;9.93;5.77;;;1.80;99.90;;;;;;4960191;29;20437;-51
2021/01/30 20:23:30;;;;;;;8.17;6.13;;;1.70;99.90;;;;;;4959672;29;20492;-56
2021/01/30 20:25:56;;;;;;;9.13;5.60;;;1.80;99.90;;;;;;4959514;29;20456;-55
2021/01/30 20:28:23;;;;;;;10.37;5.07;;;1.80;99.90;;;;;;4959288;29;20459;-50
2021/01/30 20:30:50;;;;;;;8.20;5.23;;;1.80;99.90;;;;;;4959277;29;20476;-53
2021/01/30 20:33:16;;;;;;;7.53;4.93;;;1.80;99.90;;;;;;4959587;29;20437;-49
2021/01/30 20:35:43;;;;;;;10.93;4.93;;;1.80;99.90;;;;;;4958723;29;20499;-50
2021/01/30 20:38:09;;;;;;;11.30;4.47;;;1.80;99.90;;;;;;4959267;29;20452;-51
2021/01/30 20:40:37;;;;;;;8.07;5.83;;;1.80;99.90;;;;;;4959115;29;20433;-51
2021/01/30 20:43:04;;;;;;;9.53;5.23;;;1.80;99.90;;;;;;4955010;29;20488;-52
2021/01/30 20:45:33;;;;;;;7.97;5.53;;;1.80;99.90;;;;;;4959754;29;20493;-55
2021/01/30 20:48:00;;;;;;;7.33;4.37;;;1.80;99.90;;;;;;4959206;29;20424;-52
2021/01/30 20:50:29;;;;;;;8.87;4.80;;;1.80;99.90;;;;;;4959227;29;20436;-56
2021/01/30 20:52:55;;;;;;;8.93;5.50;;;1.80;99.90;;;;;;4959094;29;20444;-57
2021/01/30 20:55:23;;;;;;;10.90;5.90;;;1.80;99.90;;;;;;4959199;29;20532;-49
2021/01/30 20:57:51;;;;;;;10.50;6.20;;;1.80;99.90;;;;;;4958876;29;20440;-51
2021/01/30 21:00:19;;;;;;;17.30;6.90;;;1.80;99.90;;;;;;4954699;29;20500;-51
2021/01/30 21:02:46;;;;;;;12.23;6.00;;;1.80;99.90;;;;;;4959112;29;20500;-50
2021/01/30 21:05:14;;;;;;;8.20;6.97;;;1.80;99.90;;;;;;4959482;29;20464;-56
2021/01/30 21:07:41;;;;;;;11.37;7.80;;;1.70;99.90;;;;;;4959617;29;20509;-53
2021/01/30 21:10:09;;;;;;;9.90;6.13;;;1.70;99.90;;;;;;4959828;29;20535;-53
2021/01/30 21:12:35;;;;;;;12.17;6.50;;;1.70;99.90;;;;;;4958758;29;20643;-50
2021/01/30 21:15:15;;;;;;;12.17;6.90;;;1.60;99.90;;;;;;4958687;29;20452;-52
2021/01/30 21:17:42;;;;;;;22.80;13.83;;;1.60;99.90;;;;;;4957914;29;20485;-49
2021/01/30 21:20:10;;;;;;;9.90;7.80;;;1.60;99.90;;;;;;4958403;29;20460;-53
2021/01/30 21:22:38;;;;;;;11.90;6.80;;;1.60;99.90;;;;;;4958640;29;20451;-54
2021/01/30 21:25:06;;;;;;;12.63;7.57;;;1.60;99.90;;;;;;4957961;29;20448;-55
2021/01/30 21:27:32;;;;;;;13.50;6.50;;;1.60;99.90;;;;;;4958041;29;20449;-54
2021/01/30 21:29:59;;;;;;;12.90;6.83;;;1.60;99.90;;;;;;4958180;29;20480;-55
2021/01/30 21:32:29;;;;;;;9.60;5.90;;;1.60;99.90;;;;;;4958169;29;20428;-57
2021/01/30 21:34:55;;;;;;;11.77;6.43;;;1.60;99.90;;;;;;4959487;28;20444;-55
2021/01/30 21:37:21;;;;;;;7.87;5.20;;;1.50;99.90;;;;;;4957791;29;20456;-53
2021/01/30 21:39:48;;;;;;;9.07;5.40;;;1.50;99.90;;;;;;4957970;29;20425;-56
2021/01/30 21:42:17;;;;;;;7.47;4.17;;;1.50;99.90;;;;;;4957774;29;20475;-54
2021/01/30 21:44:44;;;;;;;7.90;5.03;;;1.40;99.90;;;;;;4957899;29;20476;-58
2021/01/30 21:47:10;;;;;;;8.27;5.37;;;1.40;99.90;;;;;;4958908;29;20441;-57
2021/01/30 21:49:38;;;;;;;6.83;4.73;;;1.40;99.90;;;;;;4959775;29;20428;-51
2021/01/30 21:52:05;;;;;;;9.30;4.70;;;1.40;99.90;;;;;;4959529;28;20436;-54
2021/01/30 21:54:32;;;;;;;5.27;3.40;;;1.30;99.90;;;;;;4959548;28;20456;-54
2021/01/30 21:56:58;;;;;;;10.17;6.93;;;1.40;99.90;;;;;;4958413;28;20472;-63
2021/01/30 21:59:25;;;;;;;15.10;8.00;;;1.50;99.90;;;;;;4955354;29;20480;-57
2021/01/30 22:01:51;;;;;;;17.83;8.30;;;1.50;99.90;;;;;;4957625;29;20433;-52
2021/01/30 22:04:17;;;;;;;13.17;7.20;;;1.50;99.90;;;;;;4957778;29;20512;-56
2021/01/30 22:06:45;;;;;;;22.33;10.23;;;1.50;99.90;;;;;;4958259;29;20473;-53
2021/01/30 22:09:13;;;;;;;10.80;5.97;;;1.50;99.90;;;;;;4957334;29;20424;-55
2021/01/30 22:11:39;;;;;;;24.23;7.20;;;1.50;99.90;;;;;;4961448;29;20448;-54
2021/01/30 22:14:06;;;;;;;13.43;6.80;;;1.50;99.90;;;;;;4976407;29;20428;-54
2021/01/30 22:16:32;;;;;;;12.80;9.50;;;1.50;99.90;;;;;;4976575;29;20443;-59
2021/01/30 22:18:59;;;;;;;17.50;10.03;;;1.50;99.90;;;;;;4976330;29;20487;-54
2021/01/30 22:21:26;;;;;;;15.70;7.40;;;1.50;99.90;;;;;;4976617;29;20435;-56
2021/01/30 22:23:53;;;;;;;14.53;7.30;;;1.50;99.90;;;;;;4976686;29;20483;-56
2021/01/30 22:26:20;;;;;;;14.10;7.60;;;1.50;99.90;;;;;;4976522;29;20455;-54
2021/01/30 22:28:47;;;;;;;14.03;6.53;;;1.50;99.90;;;;;;4976547;29;20428;-56
2021/01/30 22:31:14;;;;;;;10.67;5.90;;;1.40;99.90;;;;;;4976288;29;20451;-56
2021/01/30 22:33:40;;;;;;;8.63;5.53;;;1.40;99.90;;;;;;4976355;29;20440;-56